sensor_id;sensor_type;location;lat;lon;timestamp;P1;durP1;ratioP1;P2;durP2;ratioP2
75626;SDS011;67372;49.404;11.034;2023-07-24T00:01:11;7.57;;;4.00;;
75626;SDS011;67372;49.404;11.034;2023-07-24T00:03:37;6.93;;;3.55;;
75626;SDS011;67372;49.404;11.034;2023-07-24T00:06:04;7.75;;;4.00;;
75626;SDS011;67372;49.404;11.034;2023-07-24T00:08:30;8.18;;;3.92;;
75626;SDS011;67372;49.404;11.034;2023-07-24T00:10:57;9.15;;;4.18;;
75626;SDS011;67372;49.404;11.034;2023-07-24T00:13:23;8.93;;;3.72;;
75626;SDS011;67372;49.404;11.034;2023-07-24T00:15:49;8.25;;;3.90;;
75626;SDS011;67372;49.404;11.034;2023-07-24T00:18:16;9.18;;;3.95;;
75626;SDS011;67372;49.404;11.034;2023-07-24T00:20:42;7.13;;;3.72;;
75626;SDS011;67372;49.404;11.034;2023-07-24T00:23:08;8.77;;;4.13;;
75626;SDS011;67372;49.404;11.034;2023-07-24T00:25:35;9.02;;;4.20;;
75626;SDS011;67372;49.404;11.034;2023-07-24T00:28:01;8.45;;;3.83;;
75626;SDS011;67372;49.404;11.034;2023-07-24T00:30:28;7.20;;;4.00;;
75626;SDS011;67372;49.404;11.034;2023-07-24T00:32:54;7.10;;;3.85;;
75626;SDS011;67372;49.404;11.034;2023-07-24T00:35:20;8.30;;;4.07;;
75626;SDS011;67372;49.404;11.034;2023-07-24T00:37:47;9.85;;;3.53;;
75626;SDS011;67372;49.404;11.034;2023-07-24T00:40:13;8.00;;;3.95;;
75626;SDS011;67372;49.404;11.034;2023-07-24T00:42:40;7.32;;;3.83;;
75626;SDS011;67372;49.404;11.034;2023-07-24T00:45:06;9.15;;;4.10;;
75626;SDS011;67372;49.404;11.034;2023-07-24T00:47:33;7.10;;;4.00;;
75626;SDS011;67372;49.404;11.034;2023-07-24T00:49:59;8.88;;;4.13;;
75626;SDS011;67372;49.404;11.034;2023-07-24T00:52:26;10.18;;;4.40;;
75626;SDS011;67372;49.404;11.034;2023-07-24T00:54:52;7.53;;;4.00;;
75626;SDS011;67372;49.404;11.034;2023-07-24T00:59:46;8.88;;;3.85;;
75626;SDS011;67372;49.404;11.034;2023-07-24T01:02:12;8.43;;;3.47;;
75626;SDS011;67372;49.404;11.034;2023-07-24T01:04:39;8.02;;;4.10;;
75626;SDS011;67372;49.404;11.034;2023-07-24T01:07:05;10.80;;;4.15;;
75626;SDS011;67372;49.404;11.034;2023-07-24T01:09:32;8.73;;;3.88;;
75626;SDS011;67372;49.404;11.034;2023-07-24T01:11:59;8.88;;;4.07;;
75626;SDS011;67372;49.404;11.034;2023-07-24T01:14:40;9.00;;;4.18;;
75626;SDS011;67372;49.404;11.034;2023-07-24T01:17:14;10.70;;;4.82;;
75626;SDS011;67372;49.404;11.034;2023-07-24T01:19:48;9.32;;;4.35;;
75626;SDS011;67372;49.404;11.034;2023-07-24T01:22:21;9.55;;;4.30;;
75626;SDS011;67372;49.404;11.034;2023-07-24T01:25:01;11.57;;;4.72;;
75626;SDS011;67372;49.404;11.034;2023-07-24T01:27:35;9.57;;;4.22;;
75626;SDS011;67372;49.404;11.034;2023-07-24T01:30:02;8.25;;;4.50;;
75626;SDS011;67372;49.404;11.034;2023-07-24T01:32:28;8.75;;;4.18;;
75626;SDS011;67372;49.404;11.034;2023-07-24T01:34:55;8.38;;;4.68;;
75626;SDS011;67372;49.404;11.034;2023-07-24T01:37:21;8.95;;;4.25;;
75626;SDS011;67372;49.404;11.034;2023-07-24T01:42:15;8.90;;;4.30;;
75626;SDS011;67372;49.404;11.034;2023-07-24T01:44:42;8.07;;;4.10;;
75626;SDS011;67372;49.404;11.034;2023-07-24T01:47:09;9.18;;;4.43;;
75626;SDS011;67372;49.404;11.034;2023-07-24T01:49:35;9.65;;;4.38;;
75626;SDS011;67372;49.404;11.034;2023-07-24T01:52:02;7.30;;;3.90;;
75626;SDS011;67372;49.404;11.034;2023-07-24T01:54:28;8.13;;;4.00;;
75626;SDS011;67372;49.404;11.034;2023-07-24T01:56:55;9.75;;;4.43;;
75626;SDS011;67372;49.404;11.034;2023-07-24T01:59:21;9.55;;;4.10;;
75626;SDS011;67372;49.404;11.034;2023-07-24T02:01:47;9.65;;;4.38;;
75626;SDS011;67372;49.404;11.034;2023-07-24T02:04:14;9.55;;;4.28;;
75626;SDS011;67372;49.404;11.034;2023-07-24T02:06:40;10.30;;;4.80;;
75626;SDS011;67372;49.404;11.034;2023-07-24T02:09:07;9.00;;;4.07;;
75626;SDS011;67372;49.404;11.034;2023-07-24T02:11:33;9.18;;;4.25;;
75626;SDS011;67372;49.404;11.034;2023-07-24T02:14:00;9.27;;;4.97;;
75626;SDS011;67372;49.404;11.034;2023-07-24T02:16:26;8.05;;;4.35;;
75626;SDS011;67372;49.404;11.034;2023-07-24T02:18:53;9.68;;;4.85;;
75626;SDS011;67372;49.404;11.034;2023-07-24T02:21:20;8.70;;;4.53;;
75626;SDS011;67372;49.404;11.034;2023-07-24T02:23:46;9.63;;;4.90;;
75626;SDS011;67372;49.404;11.034;2023-07-24T02:26:12;8.90;;;4.40;;
75626;SDS011;67372;49.404;11.034;2023-07-24T02:28:39;8.52;;;4.47;;
75626;SDS011;67372;49.404;11.034;2023-07-24T02:31:05;10.40;;;4.60;;
75626;SDS011;67372;49.404;11.034;2023-07-24T02:33:32;9.32;;;4.75;;
75626;SDS011;67372;49.404;11.034;2023-07-24T02:35:58;10.00;;;4.78;;
75626;SDS011;67372;49.404;11.034;2023-07-24T02:38:24;9.85;;;4.63;;
75626;SDS011;67372;49.404;11.034;2023-07-24T02:40:51;7.75;;;4.25;;
75626;SDS011;67372;49.404;11.034;2023-07-24T02:43:17;9.10;;;4.60;;
75626;SDS011;67372;49.404;11.034;2023-07-24T02:45:43;9.93;;;5.03;;
75626;SDS011;67372;49.404;11.034;2023-07-24T02:48:10;10.38;;;4.80;;
75626;SDS011;67372;49.404;11.034;2023-07-24T02:50:36;9.65;;;4.93;;
75626;SDS011;67372;49.404;11.034;2023-07-24T02:53:03;10.85;;;4.90;;
75626;SDS011;67372;49.404;11.034;2023-07-24T02:55:29;9.13;;;4.82;;
75626;SDS011;67372;49.404;11.034;2023-07-24T02:57:56;9.98;;;5.05;;
75626;SDS011;67372;49.404;11.034;2023-07-24T03:00:22;11.60;;;4.45;;
75626;SDS011;67372;49.404;11.034;2023-07-24T03:02:49;9.68;;;5.30;;
75626;SDS011;67372;49.404;11.034;2023-07-24T03:05:15;11.25;;;5.38;;
75626;SDS011;67372;49.404;11.034;2023-07-24T03:07:42;9.95;;;4.88;;
75626;SDS011;67372;49.404;11.034;2023-07-24T03:10:08;11.13;;;4.95;;
75626;SDS011;67372;49.404;11.034;2023-07-24T03:12:35;8.45;;;4.72;;
75626;SDS011;67372;49.404;11.034;2023-07-24T03:15:01;9.48;;;4.88;;
75626;SDS011;67372;49.404;11.034;2023-07-24T03:17:28;8.80;;;4.57;;
75626;SDS011;67372;49.404;11.034;2023-07-24T03:19:55;10.95;;;4.97;;
75626;SDS011;67372;49.404;11.034;2023-07-24T03:22:21;8.88;;;4.70;;
75626;SDS011;67372;49.404;11.034;2023-07-24T03:24:47;9.80;;;4.88;;
75626;SDS011;67372;49.404;11.034;2023-07-24T03:27:14;9.25;;;4.88;;
75626;SDS011;67372;49.404;11.034;2023-07-24T03:29:40;10.32;;;5.10;;
75626;SDS011;67372;49.404;11.034;2023-07-24T03:32:07;10.40;;;5.03;;
75626;SDS011;67372;49.404;11.034;2023-07-24T03:34:33;9.60;;;4.63;;
75626;SDS011;67372;49.404;11.034;2023-07-24T03:37:00;9.70;;;5.15;;
75626;SDS011;67372;49.404;11.034;2023-07-24T03:39:26;10.13;;;5.15;;
75626;SDS011;67372;49.404;11.034;2023-07-24T03:41:52;10.18;;;5.03;;
75626;SDS011;67372;49.404;11.034;2023-07-24T03:44:19;9.68;;;5.15;;
75626;SDS011;67372;49.404;11.034;2023-07-24T03:46:45;9.05;;;4.90;;
75626;SDS011;67372;49.404;11.034;2023-07-24T03:49:12;8.63;;;4.25;;
75626;SDS011;67372;49.404;11.034;2023-07-24T03:51:38;9.57;;;5.07;;
75626;SDS011;67372;49.404;11.034;2023-07-24T03:54:04;9.70;;;5.10;;
75626;SDS011;67372;49.404;11.034;2023-07-24T03:56:31;9.90;;;5.25;;
75626;SDS011;67372;49.404;11.034;2023-07-24T03:58:58;10.23;;;5.10;;
75626;SDS011;67372;49.404;11.034;2023-07-24T04:01:24;9.68;;;4.85;;
75626;SDS011;67372;49.404;11.034;2023-07-24T04:03:50;12.48;;;5.15;;
75626;SDS011;67372;49.404;11.034;2023-07-24T04:06:17;10.25;;;5.15;;
75626;SDS011;67372;49.404;11.034;2023-07-24T04:08:43;9.85;;;4.97;;
75626;SDS011;67372;49.404;11.034;2023-07-24T04:11:10;10.25;;;4.90;;
75626;SDS011;67372;49.404;11.034;2023-07-24T04:13:36;10.32;;;4.95;;
75626;SDS011;67372;49.404;11.034;2023-07-24T04:16:03;9.45;;;5.13;;
75626;SDS011;67372;49.404;11.034;2023-07-24T04:18:29;10.32;;;5.47;;
75626;SDS011;67372;49.404;11.034;2023-07-24T04:20:56;9.73;;;5.00;;
75626;SDS011;67372;49.404;11.034;2023-07-24T04:23:22;10.40;;;5.43;;
75626;SDS011;67372;49.404;11.034;2023-07-24T04:25:49;9.52;;;4.93;;
75626;SDS011;67372;49.404;11.034;2023-07-24T04:28:16;9.65;;;4.57;;
75626;SDS011;67372;49.404;11.034;2023-07-24T04:30:42;13.45;;;4.93;;
75626;SDS011;67372;49.404;11.034;2023-07-24T04:33:09;9.98;;;5.10;;
75626;SDS011;67372;49.404;11.034;2023-07-24T04:35:35;10.20;;;5.22;;
75626;SDS011;67372;49.404;11.034;2023-07-24T04:38:02;11.32;;;4.82;;
75626;SDS011;67372;49.404;11.034;2023-07-24T04:40:28;10.13;;;4.95;;
75626;SDS011;67372;49.404;11.034;2023-07-24T04:42:54;10.55;;;5.35;;
75626;SDS011;67372;49.404;11.034;2023-07-24T04:45:21;9.95;;;5.70;;
75626;SDS011;67372;49.404;11.034;2023-07-24T04:47:49;10.02;;;5.25;;
75626;SDS011;67372;49.404;11.034;2023-07-24T04:50:15;9.20;;;4.78;;
75626;SDS011;67372;49.404;11.034;2023-07-24T04:52:42;10.23;;;4.65;;
75626;SDS011;67372;49.404;11.034;2023-07-24T04:55:08;8.98;;;4.90;;
75626;SDS011;67372;49.404;11.034;2023-07-24T04:57:35;8.55;;;5.07;;
75626;SDS011;67372;49.404;11.034;2023-07-24T05:00:01;9.27;;;5.40;;
75626;SDS011;67372;49.404;11.034;2023-07-24T05:02:27;10.00;;;4.80;;
75626;SDS011;67372;49.404;11.034;2023-07-24T05:04:54;10.68;;;5.55;;
75626;SDS011;67372;49.404;11.034;2023-07-24T05:07:21;8.27;;;4.57;;
75626;SDS011;67372;49.404;11.034;2023-07-24T05:09:47;9.10;;;4.78;;
75626;SDS011;67372;49.404;11.034;2023-07-24T05:12:13;10.10;;;4.95;;
75626;SDS011;67372;49.404;11.034;2023-07-24T05:14:40;9.35;;;4.43;;
75626;SDS011;67372;49.404;11.034;2023-07-24T05:17:06;9.15;;;5.15;;
75626;SDS011;67372;49.404;11.034;2023-07-24T05:19:33;9.52;;;5.10;;
75626;SDS011;67372;49.404;11.034;2023-07-24T05:21:59;9.35;;;5.15;;
75626;SDS011;67372;49.404;11.034;2023-07-24T05:24:25;8.45;;;4.70;;
75626;SDS011;67372;49.404;11.034;2023-07-24T05:26:52;9.68;;;4.85;;
75626;SDS011;67372;49.404;11.034;2023-07-24T05:29:18;10.80;;;5.10;;
75626;SDS011;67372;49.404;11.034;2023-07-24T05:31:44;10.57;;;4.68;;
75626;SDS011;67372;49.404;11.034;2023-07-24T05:34:11;9.30;;;4.75;;
75626;SDS011;67372;49.404;11.034;2023-07-24T05:36:37;9.60;;;4.47;;
75626;SDS011;67372;49.404;11.034;2023-07-24T05:39:04;8.38;;;4.55;;
75626;SDS011;67372;49.404;11.034;2023-07-24T05:41:31;9.90;;;5.00;;
75626;SDS011;67372;49.404;11.034;2023-07-24T05:43:57;8.57;;;4.93;;
75626;SDS011;67372;49.404;11.034;2023-07-24T05:46:23;8.98;;;4.43;;
75626;SDS011;67372;49.404;11.034;2023-07-24T05:48:50;8.85;;;4.57;;
75626;SDS011;67372;49.404;11.034;2023-07-24T05:51:16;8.57;;;4.65;;
75626;SDS011;67372;49.404;11.034;2023-07-24T05:53:43;9.48;;;4.82;;
75626;SDS011;67372;49.404;11.034;2023-07-24T05:56:09;10.02;;;5.15;;
75626;SDS011;67372;49.404;11.034;2023-07-24T05:58:35;8.75;;;4.80;;
75626;SDS011;67372;49.404;11.034;2023-07-24T06:01:02;9.85;;;4.68;;
75626;SDS011;67372;49.404;11.034;2023-07-24T06:03:28;7.65;;;4.47;;
75626;SDS011;67372;49.404;11.034;2023-07-24T06:05:55;8.02;;;4.53;;
75626;SDS011;67372;49.404;11.034;2023-07-24T06:08:22;8.57;;;5.25;;
75626;SDS011;67372;49.404;11.034;2023-07-24T06:10:49;8.32;;;4.85;;
75626;SDS011;67372;49.404;11.034;2023-07-24T06:13:16;8.93;;;4.40;;
75626;SDS011;67372;49.404;11.034;2023-07-24T06:15:43;9.80;;;4.90;;
75626;SDS011;67372;49.404;11.034;2023-07-24T06:18:10;9.38;;;4.30;;
75626;SDS011;67372;49.404;11.034;2023-07-24T06:20:36;8.82;;;4.63;;
75626;SDS011;67372;49.404;11.034;2023-07-24T06:23:02;8.98;;;4.30;;
75626;SDS011;67372;49.404;11.034;2023-07-24T06:25:32;9.20;;;4.82;;
75626;SDS011;67372;49.404;11.034;2023-07-24T06:27:58;8.82;;;5.03;;
75626;SDS011;67372;49.404;11.034;2023-07-24T06:30:25;9.55;;;4.70;;
75626;SDS011;67372;49.404;11.034;2023-07-24T06:32:52;10.00;;;4.95;;
75626;SDS011;67372;49.404;11.034;2023-07-24T06:35:18;10.45;;;5.65;;
75626;SDS011;67372;49.404;11.034;2023-07-24T06:37:45;9.10;;;4.65;;
75626;SDS011;67372;49.404;11.034;2023-07-24T06:40:11;10.15;;;5.38;;
75626;SDS011;67372;49.404;11.034;2023-07-24T06:42:38;10.93;;;5.13;;
75626;SDS011;67372;49.404;11.034;2023-07-24T06:45:04;8.93;;;4.65;;
75626;SDS011;67372;49.404;11.034;2023-07-24T06:47:33;9.50;;;5.15;;
75626;SDS011;67372;49.404;11.034;2023-07-24T06:50:00;10.88;;;5.28;;
75626;SDS011;67372;49.404;11.034;2023-07-24T06:52:26;11.15;;;4.80;;
75626;SDS011;67372;49.404;11.034;2023-07-24T06:54:53;11.80;;;5.95;;
75626;SDS011;67372;49.404;11.034;2023-07-24T06:57:19;11.27;;;6.45;;
75626;SDS011;67372;49.404;11.034;2023-07-24T06:59:45;12.00;;;6.68;;
75626;SDS011;67372;49.404;11.034;2023-07-24T07:02:12;13.48;;;5.75;;
75626;SDS011;67372;49.404;11.034;2023-07-24T07:04:38;10.10;;;5.13;;
75626;SDS011;67372;49.404;11.034;2023-07-24T07:07:05;9.68;;;5.03;;
75626;SDS011;67372;49.404;11.034;2023-07-24T07:09:31;11.68;;;5.35;;
75626;SDS011;67372;49.404;11.034;2023-07-24T07:11:57;11.32;;;5.20;;
75626;SDS011;67372;49.404;11.034;2023-07-24T07:14:24;9.43;;;4.78;;
75626;SDS011;67372;49.404;11.034;2023-07-24T07:16:50;9.80;;;4.97;;
75626;SDS011;67372;49.404;11.034;2023-07-24T07:19:17;8.85;;;4.50;;
75626;SDS011;67372;49.404;11.034;2023-07-24T07:21:43;8.93;;;5.13;;
75626;SDS011;67372;49.404;11.034;2023-07-24T07:24:10;10.10;;;5.00;;
75626;SDS011;67372;49.404;11.034;2023-07-24T07:26:36;9.65;;;4.68;;
75626;SDS011;67372;49.404;11.034;2023-07-24T07:29:02;8.52;;;4.80;;
75626;SDS011;67372;49.404;11.034;2023-07-24T07:31:29;9.38;;;4.88;;
75626;SDS011;67372;49.404;11.034;2023-07-24T07:33:56;10.50;;;5.55;;
75626;SDS011;67372;49.404;11.034;2023-07-24T07:36:22;9.18;;;4.82;;
75626;SDS011;67372;49.404;11.034;2023-07-24T07:38:49;10.70;;;5.30;;
75626;SDS011;67372;49.404;11.034;2023-07-24T07:41:15;9.02;;;5.20;;
75626;SDS011;67372;49.404;11.034;2023-07-24T07:43:42;7.72;;;4.88;;
75626;SDS011;67372;49.404;11.034;2023-07-24T07:46:08;7.55;;;4.82;;
75626;SDS011;67372;49.404;11.034;2023-07-24T07:48:35;10.60;;;5.35;;
75626;SDS011;67372;49.404;11.034;2023-07-24T07:51:01;8.05;;;4.57;;
75626;SDS011;67372;49.404;11.034;2023-07-24T07:53:27;8.80;;;5.00;;
75626;SDS011;67372;49.404;11.034;2023-07-24T07:55:57;9.25;;;4.93;;
75626;SDS011;67372;49.404;11.034;2023-07-24T07:58:25;8.05;;;4.43;;
75626;SDS011;67372;49.404;11.034;2023-07-24T08:00:51;9.18;;;4.95;;
75626;SDS011;67372;49.404;11.034;2023-07-24T08:03:18;9.77;;;5.38;;
75626;SDS011;67372;49.404;11.034;2023-07-24T08:05:44;8.90;;;5.28;;
75626;SDS011;67372;49.404;11.034;2023-07-24T08:08:10;8.57;;;4.97;;
75626;SDS011;67372;49.404;11.034;2023-07-24T08:10:37;10.07;;;5.43;;
75626;SDS011;67372;49.404;11.034;2023-07-24T08:13:04;7.90;;;4.82;;
75626;SDS011;67372;49.404;11.034;2023-07-24T08:15:34;9.98;;;5.47;;
75626;SDS011;67372;49.404;11.034;2023-07-24T08:18:02;9.57;;;5.40;;
75626;SDS011;67372;49.404;11.034;2023-07-24T08:20:32;8.30;;;5.15;;
75626;SDS011;67372;49.404;11.034;2023-07-24T08:23:01;8.82;;;4.97;;
75626;SDS011;67372;49.404;11.034;2023-07-24T08:25:27;8.82;;;4.90;;
75626;SDS011;67372;49.404;11.034;2023-07-24T08:27:54;10.00;;;5.35;;
75626;SDS011;67372;49.404;11.034;2023-07-24T08:30:26;9.55;;;5.15;;
75626;SDS011;67372;49.404;11.034;2023-07-24T08:32:52;11.68;;;5.25;;
75626;SDS011;67372;49.404;11.034;2023-07-24T08:35:18;10.68;;;5.18;;
75626;SDS011;67372;49.404;11.034;2023-07-24T08:37:45;9.82;;;5.35;;
75626;SDS011;67372;49.404;11.034;2023-07-24T08:40:11;8.43;;;5.47;;
75626;SDS011;67372;49.404;11.034;2023-07-24T08:42:38;8.70;;;5.25;;
75626;SDS011;67372;49.404;11.034;2023-07-24T08:45:08;9.50;;;5.40;;
75626;SDS011;67372;49.404;11.034;2023-07-24T08:47:38;9.30;;;5.35;;
75626;SDS011;67372;49.404;11.034;2023-07-24T08:50:08;8.73;;;5.32;;
75626;SDS011;67372;49.404;11.034;2023-07-24T08:52:35;9.00;;;4.95;;
75626;SDS011;67372;49.404;11.034;2023-07-24T08:55:02;8.95;;;5.10;;
75626;SDS011;67372;49.404;11.034;2023-07-24T08:57:31;9.93;;;5.28;;
75626;SDS011;67372;49.404;11.034;2023-07-24T08:59:57;9.98;;;5.20;;
75626;SDS011;67372;49.404;11.034;2023-07-24T09:02:24;8.60;;;5.30;;
75626;SDS011;67372;49.404;11.034;2023-07-24T09:04:50;9.45;;;5.43;;
75626;SDS011;67372;49.404;11.034;2023-07-24T09:07:17;11.00;;;5.75;;
75626;SDS011;67372;49.404;11.034;2023-07-24T09:09:43;9.35;;;5.20;;
75626;SDS011;67372;49.404;11.034;2023-07-24T09:12:12;9.23;;;5.32;;
75626;SDS011;67372;49.404;11.034;2023-07-24T09:14:41;11.43;;;5.95;;
75626;SDS011;67372;49.404;11.034;2023-07-24T09:17:08;9.50;;;5.80;;
75626;SDS011;67372;49.404;11.034;2023-07-24T09:19:36;9.55;;;5.88;;
75626;SDS011;67372;49.404;11.034;2023-07-24T09:24:36;10.00;;;5.75;;
75626;SDS011;67372;49.404;11.034;2023-07-24T09:27:04;11.02;;;5.90;;
75626;SDS011;67372;49.404;11.034;2023-07-24T09:29:33;12.30;;;5.80;;
75626;SDS011;67372;49.404;11.034;2023-07-24T09:32:00;8.40;;;4.93;;
75626;SDS011;67372;49.404;11.034;2023-07-24T09:34:27;10.65;;;5.90;;
75626;SDS011;67372;49.404;11.034;2023-07-24T09:36:53;11.68;;;6.13;;
75626;SDS011;67372;49.404;11.034;2023-07-24T09:39:24;10.80;;;5.63;;
75626;SDS011;67372;49.404;11.034;2023-07-24T09:41:51;10.00;;;5.25;;
75626;SDS011;67372;49.404;11.034;2023-07-24T09:44:18;10.40;;;5.75;;
75626;SDS011;67372;49.404;11.034;2023-07-24T09:46:44;9.73;;;5.50;;
75626;SDS011;67372;49.404;11.034;2023-07-24T09:49:30;9.38;;;5.30;;
75626;SDS011;67372;49.404;11.034;2023-07-24T09:54:26;9.32;;;5.57;;
75626;SDS011;67372;49.404;11.034;2023-07-24T09:56:58;12.18;;;5.22;;
75626;SDS011;67372;49.404;11.034;2023-07-24T09:59:44;10.93;;;5.47;;
75626;SDS011;67372;49.404;11.034;2023-07-24T10:02:12;8.88;;;5.18;;
75626;SDS011;67372;49.404;11.034;2023-07-24T10:04:39;9.75;;;5.30;;
75626;SDS011;67372;49.404;11.034;2023-07-24T10:07:06;12.20;;;5.30;;
75626;SDS011;67372;49.404;11.034;2023-07-24T10:11:59;10.68;;;5.88;;
75626;SDS011;67372;49.404;11.034;2023-07-24T10:14:26;9.93;;;5.63;;
75626;SDS011;67372;49.404;11.034;2023-07-24T10:16:54;9.18;;;5.65;;
75626;SDS011;67372;49.404;11.034;2023-07-24T10:19:22;8.88;;;5.28;;
75626;SDS011;67372;49.404;11.034;2023-07-24T10:21:48;9.70;;;6.15;;
75626;SDS011;67372;49.404;11.034;2023-07-24T10:24:16;8.75;;;5.30;;
75626;SDS011;67372;49.404;11.034;2023-07-24T10:27:03;9.35;;;5.15;;
75626;SDS011;67372;49.404;11.034;2023-07-24T10:32:00;9.50;;;5.25;;
75626;SDS011;67372;49.404;11.034;2023-07-24T10:34:35;10.80;;;5.40;;
75626;SDS011;67372;49.404;11.034;2023-07-24T10:37:03;9.77;;;5.97;;
75626;SDS011;67372;49.404;11.034;2023-07-24T10:39:36;9.60;;;5.03;;
75626;SDS011;67372;49.404;11.034;2023-07-24T10:42:07;11.35;;;5.88;;
75626;SDS011;67372;49.404;11.034;2023-07-24T10:44:35;8.55;;;4.90;;
75626;SDS011;67372;49.404;11.034;2023-07-24T10:47:02;10.02;;;5.93;;
75626;SDS011;67372;49.404;11.034;2023-07-24T10:49:29;9.43;;;4.90;;
75626;SDS011;67372;49.404;11.034;2023-07-24T10:51:56;9.98;;;5.45;;
75626;SDS011;67372;49.404;11.034;2023-07-24T10:54:23;10.23;;;5.43;;
75626;SDS011;67372;49.404;11.034;2023-07-24T10:56:57;8.85;;;5.07;;
75626;SDS011;67372;49.404;11.034;2023-07-24T10:59:34;9.20;;;5.40;;
75626;SDS011;67372;49.404;11.034;2023-07-24T11:02:01;10.20;;;6.05;;
75626;SDS011;67372;49.404;11.034;2023-07-24T11:04:29;7.97;;;5.00;;
75626;SDS011;67372;49.404;11.034;2023-07-24T11:06:55;9.85;;;5.30;;
75626;SDS011;67372;49.404;11.034;2023-07-24T11:09:22;9.48;;;5.40;;
75626;SDS011;67372;49.404;11.034;2023-07-24T11:11:49;8.93;;;5.35;;
75626;SDS011;67372;49.404;11.034;2023-07-24T11:14:17;9.25;;;5.15;;
75626;SDS011;67372;49.404;11.034;2023-07-24T11:16:49;10.45;;;5.75;;
75626;SDS011;67372;49.404;11.034;2023-07-24T11:19:26;10.25;;;5.70;;
75626;SDS011;67372;49.404;11.034;2023-07-24T11:21:53;10.40;;;4.97;;
75626;SDS011;67372;49.404;11.034;2023-07-24T11:24:19;10.85;;;5.78;;
75626;SDS011;67372;49.404;11.034;2023-07-24T11:26:46;9.57;;;5.60;;
75626;SDS011;67372;49.404;11.034;2023-07-24T11:29:12;10.93;;;6.60;;
75626;SDS011;67372;49.404;11.034;2023-07-24T11:31:39;10.60;;;5.82;;
75626;SDS011;67372;49.404;11.034;2023-07-24T11:34:05;10.65;;;5.82;;
75626;SDS011;67372;49.404;11.034;2023-07-24T11:38:59;9.95;;;5.78;;
75626;SDS011;67372;49.404;11.034;2023-07-24T11:41:25;10.45;;;5.82;;
75626;SDS011;67372;49.404;11.034;2023-07-24T11:46:25;12.07;;;5.75;;
75626;SDS011;67372;49.404;11.034;2023-07-24T11:48:53;8.20;;;4.75;;
75626;SDS011;67372;49.404;11.034;2023-07-24T11:51:20;7.32;;;4.40;;
75626;SDS011;67372;49.404;11.034;2023-07-24T11:53:46;9.30;;;4.07;;
75626;SDS011;67372;49.404;11.034;2023-07-24T11:56:14;6.75;;;4.03;;
75626;SDS011;67372;49.404;11.034;2023-07-24T11:58:41;5.97;;;3.22;;
75626;SDS011;67372;49.404;11.034;2023-07-24T12:01:07;5.10;;;3.08;;
75626;SDS011;67372;49.404;11.034;2023-07-24T12:03:34;4.57;;;2.90;;
75626;SDS011;67372;49.404;11.034;2023-07-24T12:06:01;4.47;;;2.70;;
75626;SDS011;67372;49.404;11.034;2023-07-24T12:10:58;4.18;;;2.78;;
75626;SDS011;67372;49.404;11.034;2023-07-24T12:13:25;5.70;;;3.03;;
75626;SDS011;67372;49.404;11.034;2023-07-24T12:15:51;5.60;;;3.28;;
75626;SDS011;67372;49.404;11.034;2023-07-24T12:18:18;5.28;;;3.10;;
75626;SDS011;67372;49.404;11.034;2023-07-24T12:20:44;5.28;;;2.95;;
75626;SDS011;67372;49.404;11.034;2023-07-24T12:23:11;5.95;;;3.20;;
75626;SDS011;67372;49.404;11.034;2023-07-24T12:25:37;5.90;;;3.10;;
75626;SDS011;67372;49.404;11.034;2023-07-24T12:28:04;5.75;;;3.38;;
75626;SDS011;67372;49.404;11.034;2023-07-24T12:30:30;6.80;;;3.60;;
75626;SDS011;67372;49.404;11.034;2023-07-24T12:32:56;6.03;;;3.28;;
75626;SDS011;67372;49.404;11.034;2023-07-24T12:35:23;5.10;;;3.30;;
75626;SDS011;67372;49.404;11.034;2023-07-24T12:37:49;5.05;;;3.45;;
75626;SDS011;67372;49.404;11.034;2023-07-24T12:40:16;5.40;;;3.65;;
75626;SDS011;67372;49.404;11.034;2023-07-24T12:42:42;6.28;;;3.80;;
75626;SDS011;67372;49.404;11.034;2023-07-24T12:45:09;6.28;;;3.20;;
75626;SDS011;67372;49.404;11.034;2023-07-24T12:47:35;5.63;;;3.22;;
75626;SDS011;67372;49.404;11.034;2023-07-24T12:50:02;8.88;;;4.20;;
75626;SDS011;67372;49.404;11.034;2023-07-24T12:52:32;7.45;;;4.18;;
75626;SDS011;67372;49.404;11.034;2023-07-24T12:54:59;8.02;;;4.55;;
75626;SDS011;67372;49.404;11.034;2023-07-24T12:57:27;7.15;;;4.45;;
75626;SDS011;67372;49.404;11.034;2023-07-24T12:59:54;7.57;;;4.32;;
75626;SDS011;67372;49.404;11.034;2023-07-24T13:02:20;7.35;;;4.50;;
75626;SDS011;67372;49.404;11.034;2023-07-24T13:04:47;6.70;;;4.28;;
75626;SDS011;67372;49.404;11.034;2023-07-24T13:07:13;7.60;;;4.20;;
75626;SDS011;67372;49.404;11.034;2023-07-24T13:09:40;8.48;;;4.60;;
75626;SDS011;67372;49.404;11.034;2023-07-24T13:12:06;7.60;;;4.72;;
75626;SDS011;67372;49.404;11.034;2023-07-24T13:14:34;7.10;;;4.32;;
75626;SDS011;67372;49.404;11.034;2023-07-24T13:17:00;7.38;;;4.07;;
75626;SDS011;67372;49.404;11.034;2023-07-24T13:19:26;7.05;;;3.97;;
75626;SDS011;67372;49.404;11.034;2023-07-24T13:21:53;7.55;;;4.30;;
75626;SDS011;67372;49.404;11.034;2023-07-24T13:24:19;6.60;;;4.22;;
75626;SDS011;67372;49.404;11.034;2023-07-24T13:26:46;6.13;;;4.05;;
75626;SDS011;67372;49.404;11.034;2023-07-24T13:29:12;6.05;;;3.80;;
75626;SDS011;67372;49.404;11.034;2023-07-24T13:31:39;6.47;;;3.78;;
75626;SDS011;67372;49.404;11.034;2023-07-24T13:34:05;6.10;;;4.35;;
75626;SDS011;67372;49.404;11.034;2023-07-24T13:36:32;5.95;;;3.85;;
75626;SDS011;67372;49.404;11.034;2023-07-24T13:38:58;6.13;;;3.83;;
75626;SDS011;67372;49.404;11.034;2023-07-24T13:41:24;6.80;;;3.92;;
75626;SDS011;67372;49.404;11.034;2023-07-24T13:43:51;5.93;;;3.53;;
75626;SDS011;67372;49.404;11.034;2023-07-24T13:46:18;6.35;;;3.42;;
75626;SDS011;67372;49.404;11.034;2023-07-24T13:48:44;4.70;;;3.25;;
75626;SDS011;67372;49.404;11.034;2023-07-24T13:51:10;6.85;;;3.72;;
75626;SDS011;67372;49.404;11.034;2023-07-24T13:53:37;6.65;;;3.90;;
75626;SDS011;67372;49.404;11.034;2023-07-24T13:56:03;6.93;;;3.47;;
75626;SDS011;67372;49.404;11.034;2023-07-24T13:58:30;6.13;;;3.72;;
75626;SDS011;67372;49.404;11.034;2023-07-24T14:00:57;6.57;;;3.60;;
75626;SDS011;67372;49.404;11.034;2023-07-24T14:03:23;6.55;;;3.58;;
75626;SDS011;67372;49.404;11.034;2023-07-24T14:05:52;6.40;;;3.58;;
75626;SDS011;67372;49.404;11.034;2023-07-24T14:08:18;5.78;;;3.20;;
75626;SDS011;67372;49.404;11.034;2023-07-24T14:10:45;5.80;;;3.53;;
75626;SDS011;67372;49.404;11.034;2023-07-24T14:13:11;6.22;;;3.38;;
75626;SDS011;67372;49.404;11.034;2023-07-24T14:15:38;5.43;;;3.50;;
75626;SDS011;67372;49.404;11.034;2023-07-24T14:18:04;4.88;;;2.90;;
75626;SDS011;67372;49.404;11.034;2023-07-24T14:20:31;5.30;;;3.15;;
75626;SDS011;67372;49.404;11.034;2023-07-24T14:22:57;5.57;;;3.53;;
75626;SDS011;67372;49.404;11.034;2023-07-24T14:25:23;4.95;;;3.25;;
75626;SDS011;67372;49.404;11.034;2023-07-24T14:27:50;5.72;;;3.28;;
75626;SDS011;67372;49.404;11.034;2023-07-24T14:30:16;5.97;;;3.20;;
75626;SDS011;67372;49.404;11.034;2023-07-24T14:32:43;5.25;;;3.08;;
75626;SDS011;67372;49.404;11.034;2023-07-24T14:37:36;5.05;;;2.90;;
75626;SDS011;67372;49.404;11.034;2023-07-24T14:40:02;5.93;;;3.20;;
75626;SDS011;67372;49.404;11.034;2023-07-24T14:42:29;6.18;;;3.33;;
75626;SDS011;67372;49.404;11.034;2023-07-24T14:44:56;4.57;;;2.90;;
75626;SDS011;67372;49.404;11.034;2023-07-24T14:47:22;4.65;;;2.85;;
75626;SDS011;67372;49.404;11.034;2023-07-24T14:49:48;5.22;;;3.25;;
75626;SDS011;67372;49.404;11.034;2023-07-24T14:52:15;4.90;;;3.20;;
75626;SDS011;67372;49.404;11.034;2023-07-24T14:54:41;5.68;;;3.30;;